createdAt,value
2019-02-25T00:00:19.855Z,14.53
2019-02-25T00:02:48.735Z,17.37
2019-02-25T00:05:17.463Z,15.60
2019-02-25T00:07:46.490Z,20.47
2019-02-25T00:10:15.237Z,20.83
2019-02-25T00:12:43.967Z,22.80
2019-02-25T00:15:12.845Z,17.57
2019-02-25T00:17:41.763Z,15.67
2019-02-25T00:20:11.801Z,15.30
2019-02-25T00:22:40.673Z,24.23
2019-02-25T00:25:13.422Z,17.43
2019-02-25T00:27:42.151Z,15.17
2019-02-25T00:30:13.003Z,13.27
2019-02-25T00:32:41.727Z,17.13
2019-02-25T00:35:10.456Z,12.77
2019-02-25T00:37:39.213Z,13.07
2019-02-25T00:40:09.932Z,16.13
2019-02-25T00:42:38.665Z,16.57
2019-02-25T00:45:13.062Z,10.77
2019-02-25T00:47:41.809Z,17.30
2019-02-25T00:50:21.005Z,20.00
2019-02-25T00:52:49.839Z,11.90
2019-02-25T00:55:18.758Z,13.37
2019-02-25T00:57:47.554Z,16.20
2019-02-25T01:00:18.611Z,14.43
2019-02-25T01:02:47.346Z,16.33
2019-02-25T01:05:16.786Z,15.97
2019-02-25T01:07:45.503Z,19.50
2019-02-25T01:10:15.134Z,19.93
2019-02-25T01:12:45.844Z,20.70
2019-02-25T01:15:15.276Z,12.77
2019-02-25T01:17:43.999Z,13.57
2019-02-25T01:20:15.298Z,14.00
2019-02-25T01:22:44.118Z,17.07
2019-02-25T01:25:17.599Z,19.10
2019-02-25T01:27:46.559Z,23.40
2019-02-25T01:30:19.700Z,18.93
2019-02-25T01:32:48.434Z,15.27
2019-02-25T01:35:17.607Z,15.53
2019-02-25T01:37:46.331Z,12.27
2019-02-25T01:40:15.453Z,15.03
2019-02-25T01:42:44.329Z,12.97
2019-02-25T01:45:15.728Z,13.77
2019-02-25T01:47:44.450Z,12.67
2019-02-25T01:50:13.232Z,13.80
2019-02-25T01:52:41.957Z,10.73
2019-02-25T01:55:12.388Z,13.93
2019-02-25T01:57:41.293Z,12.80
2019-02-25T02:00:15.479Z,13.00
2019-02-25T02:02:44.203Z,9.97
2019-02-25T02:05:13.113Z,13.33
2019-02-25T02:07:41.828Z,19.03
2019-02-25T02:10:17.516Z,18.13
2019-02-25T02:12:46.350Z,19.87
2019-02-25T02:15:16.775Z,20.83
2019-02-25T02:17:45.670Z,18.70
2019-02-25T02:20:16.299Z,23.07
2019-02-25T02:22:45.030Z,20.97
2019-02-25T02:25:14.386Z,17.53
2019-02-25T02:27:43.117Z,17.33
2019-02-25T02:30:22.184Z,14.73
2019-02-25T02:32:50.908Z,10.47
2019-02-25T02:35:19.627Z,12.83
2019-02-25T02:37:48.516Z,14.57
2019-02-25T02:40:17.248Z,12.47
2019-02-25T02:43:00.156Z,11.10
2019-02-25T02:45:34.613Z,9.53
2019-02-25T02:48:09.579Z,11.97
2019-02-25T02:50:38.368Z,9.50
2019-02-25T02:53:07.114Z,8.03
2019-02-25T02:55:36.273Z,9.53
2019-02-25T02:58:05.096Z,13.17
2019-02-25T03:00:33.923Z,9.53
2019-02-25T03:03:02.813Z,13.10
2019-02-25T03:05:31.573Z,7.70
2019-02-25T03:08:00.376Z,12.87
2019-02-25T03:10:29.268Z,9.00
2019-02-25T03:12:58.000Z,6.87
2019-02-25T03:15:26.752Z,12.13
2019-02-25T03:17:55.502Z,15.20
2019-02-25T03:20:24.231Z,13.97
2019-02-25T03:22:52.957Z,17.80
2019-02-25T03:25:21.829Z,12.67
2019-02-25T03:27:50.553Z,12.10
2019-02-25T03:30:20.920Z,11.53
2019-02-25T03:32:50.668Z,12.90
2019-02-25T03:35:19.548Z,10.20
2019-02-25T03:37:48.303Z,9.10
2019-02-25T03:40:19.518Z,9.00
2019-02-25T03:42:48.221Z,13.13
2019-02-25T03:45:18.548Z,13.77
2019-02-25T03:47:47.306Z,12.03
2019-02-25T03:50:16.039Z,13.63
2019-02-25T03:52:44.764Z,15.43
2019-02-25T03:55:22.807Z,17.80
2019-02-25T03:57:51.658Z,27.20
2019-02-25T04:00:22.825Z,28.30
2019-02-25T04:02:53.808Z,17.10
2019-02-25T04:05:22.527Z,17.17
2019-02-25T04:07:51.254Z,22.73
2019-02-25T04:10:20.285Z,17.90
2019-02-25T04:12:49.009Z,19.50
2019-02-25T04:15:26.406Z,14.83
2019-02-25T04:17:55.128Z,19.30
2019-02-25T04:20:23.852Z,13.10
2019-02-25T04:22:52.621Z,12.87
2019-02-25T04:25:21.345Z,12.27
2019-02-25T04:27:50.090Z,9.93
2019-02-25T04:30:19.327Z,9.60
2019-02-25T04:32:48.050Z,68.20
2019-02-25T04:35:16.799Z,16.27
2019-02-25T04:37:45.691Z,10.03
2019-02-25T04:40:15.075Z,10.50
2019-02-25T04:42:43.997Z,10.07
2019-02-25T04:45:18.220Z,10.70
2019-02-25T04:47:46.951Z,15.83
2019-02-25T04:50:15.679Z,12.17
2019-02-25T04:52:50.467Z,14.67
2019-02-25T04:55:19.196Z,12.10
2019-02-25T04:57:47.920Z,21.33
2019-02-25T05:00:19.288Z,17.43
2019-02-25T05:02:48.022Z,12.03
2019-02-25T05:05:16.748Z,13.13
2019-02-25T05:07:45.554Z,18.23
2019-02-25T05:10:17.926Z,13.93
2019-02-25T05:12:51.036Z,17.80
2019-02-25T05:15:21.348Z,18.87
2019-02-25T05:17:50.073Z,12.77
2019-02-25T05:20:19.266Z,14.70
2019-02-25T05:22:47.992Z,18.43
2019-02-25T05:25:16.722Z,18.60
2019-02-25T05:27:45.719Z,24.37
2019-02-25T05:30:15.527Z,18.20
2019-02-25T05:32:44.266Z,16.17
2019-02-25T05:35:14.597Z,22.57
2019-02-25T05:37:43.324Z,14.47
2019-02-25T05:40:14.975Z,18.50
2019-02-25T05:42:43.973Z,20.33
2019-02-25T05:45:14.111Z,24.63
2019-02-25T05:47:42.837Z,21.40
2019-02-25T05:50:16.735Z,21.13
2019-02-25T05:52:45.457Z,21.70
2019-02-25T05:55:16.371Z,35.70
2019-02-25T05:57:45.378Z,27.27
2019-02-25T06:00:18.592Z,52.63
2019-02-25T06:02:47.332Z,52.20
2019-02-25T06:05:16.555Z,29.03
2019-02-25T06:07:45.287Z,29.03
2019-02-25T06:10:14.816Z,27.50
2019-02-25T06:12:50.947Z,23.60
2019-02-25T06:15:20.619Z,26.87
2019-02-25T06:17:49.353Z,25.87
2019-02-25T06:20:18.849Z,22.37
2019-02-25T06:22:47.585Z,22.70
2019-02-25T06:25:17.331Z,20.87
2019-02-25T06:27:46.500Z,16.37
2019-02-25T06:30:17.731Z,19.83
2019-02-25T06:32:46.465Z,21.93
2019-02-25T06:35:15.324Z,24.00
2019-02-25T06:37:44.054Z,21.40
2019-02-25T06:40:20.292Z,22.33
2019-02-25T06:42:49.264Z,16.57
2019-02-25T06:45:23.435Z,25.77
2019-02-25T06:47:52.546Z,30.57
2019-02-25T06:50:21.326Z,22.53
2019-02-25T06:52:50.072Z,22.67
2019-02-25T06:55:18.798Z,16.27
2019-02-25T06:57:47.576Z,23.10
2019-02-25T07:00:18.743Z,26.37
2019-02-25T07:02:47.603Z,19.40
2019-02-25T07:05:21.156Z,24.10
2019-02-25T07:07:51.469Z,25.80
2019-02-25T07:10:24.456Z,15.13
2019-02-25T07:12:54.910Z,16.50
2019-02-25T07:15:31.209Z,21.40
2019-02-25T07:18:07.362Z,36.67
2019-02-25T07:20:46.420Z,44.07
2019-02-25T07:23:17.937Z,25.77
2019-02-25T07:25:54.089Z,21.80
2019-02-25T07:28:24.425Z,28.40
2019-02-25T07:30:54.727Z,17.27
2019-02-25T07:33:40.318Z,15.87
2019-02-25T07:36:10.698Z,21.93
2019-02-25T07:38:44.030Z,23.87
2019-02-25T07:41:14.327Z,43.80
2019-02-25T07:43:50.960Z,25.43
2019-02-25T07:46:27.154Z,53.93
2019-02-25T07:49:03.666Z,22.67
2019-02-25T07:51:37.081Z,25.73
2019-02-25T07:54:10.305Z,16.97
2019-02-25T07:56:43.349Z,18.27
2019-02-25T07:59:16.790Z,23.20
2019-02-25T08:01:47.104Z,21.70
2019-02-25T08:04:20.278Z,26.60
2019-02-25T08:06:59.614Z,16.00
2019-02-25T08:09:32.835Z,23.07
2019-02-25T08:12:07.254Z,29.57
2019-02-25T08:14:49.812Z,30.33
2019-02-25T08:17:26.380Z,21.37
2019-02-25T08:19:56.684Z,22.43
2019-02-25T08:22:36.194Z,24.07
2019-02-25T08:25:20.069Z,26.20
2019-02-25T08:27:50.461Z,19.97
2019-02-25T13:39:55.602Z,13.53
2019-02-25T13:42:24.329Z,19.20
2019-02-25T13:44:53.043Z,24.33
2019-02-25T13:47:21.800Z,18.70
2019-02-25T13:49:50.801Z,11.80
2019-02-25T13:52:19.521Z,16.63
2019-02-25T13:54:48.443Z,18.67
2019-02-25T13:57:17.174Z,26.50
2019-02-25T13:59:45.891Z,24.13
2019-02-25T14:02:14.748Z,14.87
2019-02-25T14:04:43.760Z,16.57
2019-02-25T14:07:12.645Z,17.90
2019-02-25T14:09:41.525Z,15.23
2019-02-25T14:12:10.248Z,31.27
2019-02-25T14:14:38.985Z,20.50
2019-02-25T14:17:07.869Z,28.27
2019-02-25T14:19:36.802Z,50.47
2019-02-25T14:22:05.539Z,30.60
2019-02-25T14:24:34.408Z,50.87
2019-02-25T14:27:03.125Z,27.67
2019-02-25T14:29:31.856Z,39.23
2019-02-25T14:32:00.706Z,27.93
2019-02-25T14:34:29.435Z,29.57
2019-02-25T14:36:59.725Z,31.83
2019-02-25T14:39:30.469Z,39.47
2019-02-25T14:42:01.253Z,43.77
2019-02-25T14:44:32.483Z,66.30
2019-02-25T14:47:02.636Z,34.63
2019-02-25T14:49:32.564Z,31.07
2019-02-25T14:52:01.066Z,57.97
2019-02-25T14:54:32.305Z,26.93
2019-02-25T14:57:01.079Z,21.77
2019-02-25T14:59:29.804Z,33.03
2019-02-25T15:01:59.314Z,43.50
2019-02-25T15:04:29.020Z,26.10
2019-02-25T15:06:57.742Z,41.00
2019-02-25T15:09:28.348Z,34.00
2019-02-25T15:11:57.730Z,31.83
2019-02-25T15:14:27.855Z,26.00
2019-02-25T15:16:56.814Z,56.47
2019-02-25T15:19:27.913Z,40.10
2019-02-25T15:21:56.872Z,42.10
2019-02-25T15:24:26.686Z,21.83
2019-02-25T15:26:57.389Z,24.60
2019-02-25T15:29:25.860Z,35.30
2019-02-25T15:31:55.190Z,37.60
2019-02-25T15:34:25.068Z,32.47
2019-02-25T15:36:53.799Z,33.63
2019-02-25T15:39:23.483Z,35.07
2019-02-25T15:41:55.059Z,38.13
2019-02-25T15:44:24.564Z,27.67
2019-02-25T15:46:53.463Z,51.00
2019-02-25T15:49:24.011Z,46.50
2019-02-25T15:51:52.774Z,37.50
2019-02-25T15:54:21.500Z,29.77
2019-02-25T15:56:50.251Z,28.07
2019-02-25T15:59:19.066Z,32.50
2019-02-25T16:01:48.153Z,36.43
2019-02-25T16:04:16.843Z,33.40
2019-02-25T16:06:45.664Z,30.50
2019-02-25T16:09:17.073Z,41.23
2019-02-25T16:11:47.388Z,50.03
2019-02-25T16:14:16.219Z,43.87
2019-02-25T16:16:45.004Z,52.20
2019-02-25T16:19:13.697Z,83.33
2019-02-25T16:21:42.558Z,110.67
2019-02-25T16:24:12.297Z,79.37
2019-02-25T16:26:42.778Z,67.97
2019-02-25T16:29:13.453Z,86.93
2019-02-25T16:31:42.415Z,78.20
2019-02-25T16:34:12.057Z,55.33
2019-02-25T16:36:41.676Z,62.03
2019-02-25T16:39:10.403Z,67.60
2019-02-25T16:41:41.758Z,129.10
2019-02-25T16:44:10.270Z,95.57
2019-02-25T16:46:41.202Z,66.00
2019-02-25T16:49:09.449Z,58.27
2019-02-25T16:51:38.526Z,75.67
2019-02-25T16:54:11.066Z,97.70
2019-02-25T16:56:37.850Z,83.83
2019-02-25T16:59:10.732Z,69.43
2019-02-25T17:01:39.300Z,78.47
2019-02-25T17:04:07.453Z,76.63
2019-02-25T17:06:36.928Z,82.70
2019-02-25T17:09:07.139Z,122.57
2019-02-25T17:11:37.930Z,100.97
2019-02-25T17:14:06.504Z,107.93
2019-02-25T17:16:35.228Z,71.00
2019-02-25T17:19:05.624Z,118.83
2019-02-25T17:21:34.507Z,185.67
2019-02-25T17:24:05.208Z,75.27
2019-02-25T17:26:33.688Z,98.47
2019-02-25T17:29:02.587Z,101.67
2019-02-25T17:31:32.275Z,88.77
2019-02-25T17:34:01.830Z,76.10
2019-02-25T17:36:31.019Z,69.73
2019-02-25T17:38:59.747Z,81.13
2019-02-25T17:41:28.501Z,117.90
2019-02-25T17:43:59.227Z,134.10
2019-02-25T17:46:28.775Z,151.03
2019-02-25T17:48:58.677Z,158.90
2019-02-25T17:51:27.577Z,136.60
2019-02-25T17:53:56.583Z,161.50
2019-02-25T17:56:26.987Z,93.10
2019-02-25T17:58:56.156Z,72.33
2019-02-25T18:01:26.292Z,77.60
2019-02-25T18:03:55.440Z,59.37
2019-02-25T18:06:29.560Z,72.37
2019-02-25T18:08:55.389Z,71.63
2019-02-25T18:11:25.365Z,92.37
2019-02-25T18:13:55.702Z,102.47
2019-02-25T18:16:24.635Z,111.07
2019-02-25T18:18:54.471Z,116.70
2019-02-25T18:21:28.152Z,106.30
2019-02-25T18:23:54.630Z,109.17
2019-02-25T18:26:28.578Z,74.20
2019-02-25T18:28:57.017Z,63.67
2019-02-25T18:31:26.030Z,60.07
2019-02-25T18:33:54.756Z,66.33
2019-02-25T18:36:26.305Z,55.77
2019-02-25T18:38:54.937Z,51.27
2019-02-25T18:41:25.415Z,44.87
2019-02-25T18:43:54.938Z,40.87
2019-02-25T18:46:25.111Z,47.57
2019-02-25T18:48:54.303Z,63.40
2019-02-25T18:51:24.632Z,66.57
2019-02-25T18:53:54.879Z,50.40
2019-02-25T18:56:24.264Z,59.50
2019-02-25T18:58:53.773Z,60.53
2019-02-25T19:01:23.605Z,58.80
2019-02-25T19:03:54.308Z,65.53
2019-02-25T19:06:24.019Z,65.77
2019-02-25T19:08:55.611Z,65.07
2019-02-25T19:11:25.930Z,65.90
2019-02-25T19:13:56.638Z,86.00
2019-02-25T19:16:25.364Z,75.87
2019-02-25T19:18:54.095Z,82.47
2019-02-25T19:21:24.989Z,102.30
2019-02-25T19:23:53.767Z,96.77
2019-02-25T19:26:22.509Z,104.63
2019-02-25T19:28:52.495Z,125.50
2019-02-25T19:31:23.913Z,103.47
2019-02-25T19:33:52.226Z,58.60
2019-02-25T19:36:21.126Z,50.03
2019-02-25T19:38:50.325Z,65.80
2019-02-25T19:41:20.686Z,79.90
2019-02-25T19:43:58.674Z,69.83
2019-02-25T19:46:20.023Z,67.97
2019-02-25T19:48:49.779Z,89.07
2019-02-25T19:51:20.716Z,87.83
2019-02-25T19:53:50.082Z,87.33
2019-02-25T19:56:18.828Z,116.40
2019-02-25T19:58:47.717Z,97.43
2019-02-25T20:01:16.472Z,99.80
2019-02-25T20:03:47.592Z,123.97
2019-02-25T20:06:18.566Z,131.07
2019-02-25T20:08:48.577Z,135.07
2019-02-25T20:11:17.126Z,98.27
2019-02-25T20:13:46.001Z,96.57
2019-02-25T20:16:18.001Z,97.73
2019-02-25T20:18:45.595Z,111.90
2019-02-25T20:21:14.495Z,107.43
2019-02-25T20:23:44.887Z,110.30
2019-02-25T20:26:15.304Z,64.80
2019-02-25T20:28:46.178Z,63.00
2019-02-25T20:31:16.639Z,44.80
2019-02-25T20:33:45.156Z,45.53
2019-02-25T20:36:17.158Z,43.80
2019-02-25T20:38:44.415Z,63.70
2019-02-25T20:41:16.038Z,112.07
2019-02-25T20:43:44.519Z,120.00
2019-02-25T20:46:14.101Z,131.30
2019-02-25T20:48:46.478Z,76.13
2019-02-25T20:51:13.518Z,75.47
2019-02-25T20:53:42.248Z,68.47
2019-02-25T20:56:11.010Z,61.93
2019-02-25T20:58:40.205Z,92.20
2019-02-25T21:01:12.076Z,129.27
2019-02-25T21:03:43.870Z,105.97
2019-02-25T21:06:12.686Z,155.23
2019-02-25T21:08:42.753Z,158.63
2019-02-25T21:11:13.359Z,144.00
2019-02-25T21:13:43.082Z,105.67
2019-02-25T21:16:11.825Z,102.63
2019-02-25T21:18:40.557Z,108.97
2019-02-25T21:21:11.731Z,116.63
2019-02-25T21:23:39.908Z,124.73
2019-02-25T21:26:09.314Z,102.40
2019-02-25T21:28:40.460Z,118.33
2019-02-25T21:31:13.801Z,216.60
2019-02-25T21:33:44.997Z,251.67
2019-02-25T21:36:11.057Z,279.13
2019-02-25T21:38:39.792Z,393.83
2019-02-25T21:41:09.127Z,265.87
2019-02-25T21:43:43.332Z,268.10
2019-02-25T21:46:10.096Z,135.77
2019-02-25T21:48:38.832Z,144.83
2019-02-25T21:51:09.613Z,105.03
2019-02-25T21:53:38.088Z,114.53
2019-02-25T21:56:06.829Z,126.67
2019-02-25T21:58:36.059Z,148.53
2019-02-25T22:01:04.793Z,127.53
2019-02-25T22:03:36.952Z,52.70
2019-02-25T22:06:04.895Z,45.67
2019-02-25T22:08:36.109Z,37.93
2019-02-25T22:11:12.593Z,34.13
2019-02-25T22:13:37.844Z,32.23
2019-02-25T22:16:08.015Z,38.73
2019-02-25T22:18:38.357Z,44.27
2019-02-25T22:21:09.235Z,67.73
2019-02-25T22:23:37.621Z,60.47
2019-02-25T22:26:06.359Z,73.63
2019-02-25T22:28:37.025Z,54.87
2019-02-25T22:31:07.925Z,59.07
2019-02-25T22:33:36.033Z,35.23
2019-02-25T22:36:05.516Z,31.97
2019-02-25T22:38:34.255Z,34.70
2019-02-25T22:41:02.974Z,24.93
2019-02-25T22:43:32.199Z,39.90
2019-02-25T22:46:02.486Z,37.50
2019-02-25T22:48:31.362Z,58.63
2019-02-25T22:51:02.632Z,78.93
2019-02-25T22:53:32.322Z,74.97
2019-02-25T22:56:01.047Z,67.67
2019-02-25T22:58:31.583Z,43.63
2019-02-25T23:01:14.737Z,53.03
2019-02-25T23:03:44.913Z,70.47
2019-02-25T23:06:13.952Z,68.50
2019-02-25T23:08:44.243Z,72.13
2019-02-25T23:11:14.367Z,57.90
2019-02-25T23:13:45.707Z,81.37
2019-02-25T23:16:15.631Z,68.23
2019-02-25T23:18:44.986Z,44.17
2019-02-25T23:21:23.174Z,32.53
2019-02-25T23:23:44.080Z,41.97
2019-02-25T23:26:14.702Z,34.00
2019-02-25T23:28:43.303Z,29.47
2019-02-25T23:31:16.329Z,39.70
2019-02-25T23:33:47.253Z,30.73
2019-02-25T23:36:17.577Z,30.73
2019-02-25T23:38:46.433Z,26.47
2019-02-25T23:41:16.676Z,23.17
2019-02-25T23:43:48.322Z,32.50
2019-02-25T23:46:15.891Z,31.83
2019-02-25T23:48:46.508Z,29.30
2019-02-25T23:51:17.253Z,29.83
2019-02-25T23:53:46.537Z,26.93
2019-02-25T23:56:18.944Z,24.73
2019-02-25T23:58:47.973Z,31.03
